createdAt,value
2022-12-23T00:00:32.975Z,98836.41
2022-12-23T00:03:02.256Z,98837.31
2022-12-23T00:05:37.445Z,98839.13
2022-12-23T00:08:07.888Z,98846.06
2022-12-23T00:10:39.457Z,98852.09
2022-12-23T00:13:26.138Z,98858.16
2022-12-23T00:16:04.644Z,98849.53
2022-12-23T00:18:34.480Z,98844.25
2022-12-23T00:21:08.624Z,98837.63
2022-12-23T00:23:40.772Z,98823.72
2022-12-23T00:26:15.587Z,98815.63
2022-12-23T00:28:44.990Z,98818.94
2022-12-23T00:31:18.386Z,98821.91
2022-12-23T00:33:49.929Z,98821.31
2022-12-23T00:36:21.361Z,98817.13
2022-12-23T00:39:08.343Z,98815.28
2022-12-23T00:41:54.962Z,98818.03
2022-12-23T00:44:24.144Z,98833.56
2022-12-23T00:47:12.356Z,98826.06
2022-12-23T00:49:58.532Z,98825.88
2022-12-23T00:52:44.871Z,98809.44
2022-12-23T00:55:30.994Z,98806.88
2022-12-23T00:58:17.677Z,98804.13
2022-12-23T01:01:04.356Z,98816.78
2022-12-23T01:03:52.056Z,98808.34
2022-12-23T01:06:21.137Z,98789.34
2022-12-23T01:08:50.107Z,98785.13
2022-12-23T01:11:19.139Z,98779.09
2022-12-23T01:13:48.106Z,98775.44
2022-12-23T01:16:17.996Z,98773.94
2022-12-23T01:18:48.611Z,98772.72
2022-12-23T01:21:17.961Z,98778.75
2022-12-23T01:23:47.013Z,98770.88
2022-12-23T01:26:16.048Z,98778.75
2022-12-23T01:28:45.075Z,98782.03
2022-12-23T01:31:14.112Z,98770.88
2022-12-23T01:33:43.146Z,98780.06
2022-12-23T01:36:31.357Z,98776.59
2022-12-23T01:39:17.423Z,98772.94
2022-12-23T01:42:03.699Z,98776.41
2022-12-23T01:45:18.896Z,98777.03
2022-12-23T01:48:12.095Z,98796.22
2022-12-23T01:51:03.276Z,98783.78
2022-12-23T01:53:53.997Z,98787.09
2022-12-23T01:56:44.612Z,98796.78
2022-12-23T01:59:33.323Z,98786.53
2022-12-23T02:02:20.467Z,98777.19
2022-12-23T02:05:08.663Z,98775.94
2022-12-23T02:07:55.504Z,98774.47
2022-12-23T02:10:52.595Z,98787.44
2022-12-23T02:13:50.519Z,98778.25
2022-12-23T02:17:07.659Z,98771.16
2022-12-23T02:20:28.682Z,98763.44
2022-12-23T02:23:42.323Z,98774.28
2022-12-23T02:26:53.045Z,98775.94
2022-12-23T02:30:08.796Z,98770.06
2022-12-23T02:33:08.849Z,98760.56
2022-12-23T02:36:03.584Z,98759.50
2022-12-23T02:38:58.424Z,98761.13
2022-12-23T02:41:50.175Z,98754.38
2022-12-23T02:44:44.936Z,98747.41
2022-12-23T02:47:38.091Z,98748.16
2022-12-23T02:50:32.916Z,98755.28
2022-12-23T02:53:25.811Z,98748.50
2022-12-23T02:56:14.825Z,98738.25
2022-12-23T02:59:05.447Z,98739.00
2022-12-23T03:01:53.489Z,98740.03
2022-12-23T03:04:40.526Z,98742.59
2022-12-23T03:07:34.914Z,98753.00
2022-12-23T03:10:29.440Z,98759.09
2022-12-23T03:13:27.952Z,98764.22
2022-12-23T03:16:26.081Z,98761.78
2022-12-23T03:19:26.833Z,98766.78
2022-12-23T03:22:23.692Z,98769.00
2022-12-23T03:25:19.333Z,98765.34
2022-12-23T03:28:13.282Z,98763.88
2022-12-23T03:31:03.043Z,98762.06
2022-12-23T03:33:53.068Z,98763.53
2022-12-23T03:36:43.461Z,98757.50
2022-12-23T03:39:34.647Z,98772.31
2022-12-23T03:42:27.926Z,98758.75
2022-12-23T03:45:38.278Z,98758.75
2022-12-23T03:48:28.624Z,98764.78
2022-12-23T03:51:18.325Z,98772.31
2022-12-23T03:54:10.424Z,98771.56
2022-12-23T03:57:00.100Z,98766.25
2022-12-23T03:59:50.470Z,98768.81
2022-12-23T04:02:45.840Z,98769.00
2022-12-23T04:05:41.250Z,98771.16
2022-12-23T04:08:32.596Z,98772.03
2022-12-23T04:11:20.551Z,98767.81
2022-12-23T04:14:07.357Z,98772.38
2022-12-23T04:16:55.241Z,98766.34
2022-12-23T04:19:42.077Z,98763.28
2022-12-23T04:22:28.611Z,98766.59
2022-12-23T04:25:14.791Z,98764.94
2022-12-23T04:28:01.224Z,98764.94
2022-12-23T04:30:47.725Z,98767.50
2022-12-23T04:33:35.544Z,98764.03
2022-12-23T04:36:21.734Z,98759.81
2022-12-23T04:39:08.034Z,98757.56
2022-12-23T04:41:54.768Z,98762.69
2022-12-23T04:44:41.063Z,98757.56
2022-12-23T04:47:27.179Z,98760.13
2022-12-23T04:50:14.906Z,98762.69
2022-12-23T04:53:01.517Z,98766.34
2022-12-23T04:55:47.900Z,98762.28
2022-12-23T04:58:34.103Z,98768.91
2022-12-23T05:01:21.345Z,98758.66
2022-12-23T05:04:07.584Z,98759.72
2022-12-23T05:06:56.484Z,98757.00
2022-12-23T05:09:42.586Z,98756.25
2022-12-23T05:12:28.855Z,98751.88
2022-12-23T05:15:15.446Z,98752.78
2022-12-23T05:18:01.764Z,98755.66
2022-12-23T05:20:48.137Z,98756.38
2022-12-23T05:23:36.142Z,98747.50
2022-12-23T05:26:22.935Z,98737.06
2022-12-23T05:29:09.211Z,98742.19
2022-12-23T05:31:56.026Z,98748.41
2022-12-23T05:34:42.129Z,98749.31
2022-12-23T05:37:28.333Z,98749.13
2022-12-23T05:40:21.596Z,98749.47
2022-12-23T05:43:10.038Z,98745.84
2022-12-23T05:45:56.876Z,98735.88
2022-12-23T05:48:43.198Z,98741.00
2022-12-23T05:51:29.687Z,98740.28
2022-12-23T05:54:16.578Z,98741.34
2022-12-23T05:57:04.504Z,98732.94
2022-12-23T05:59:51.461Z,98737.88
2022-12-23T06:02:38.282Z,98733.50
2022-12-23T06:05:25.831Z,98737.28
2022-12-23T06:08:12.277Z,98740.63
2022-12-23T06:10:58.996Z,98741.66
2022-12-23T06:13:46.998Z,98741.66
2022-12-23T06:16:33.514Z,98734.13
2022-12-23T06:19:19.870Z,98729.31
2022-12-23T06:22:07.523Z,98725.09
2022-12-23T06:24:53.956Z,98727.53
2022-12-23T06:27:40.620Z,98719.25
2022-12-23T06:30:30.385Z,98722.44
2022-12-23T06:33:16.655Z,98724.09
2022-12-23T06:36:03.429Z,98724.28
2022-12-23T06:38:49.861Z,98724.56
2022-12-23T06:41:36.011Z,98717.97
2022-12-23T06:44:23.366Z,98717.97
2022-12-23T06:47:11.634Z,98723.44
2022-12-23T06:49:58.280Z,98719.19
2022-12-23T06:52:44.750Z,98714.97
2022-12-23T06:55:31.474Z,98718.00
2022-12-23T06:58:17.781Z,98715.63
2022-12-23T07:01:04.183Z,98715.00
2022-12-23T07:03:52.085Z,98715.19
2022-12-23T07:06:39.184Z,98715.00
2022-12-23T07:09:25.285Z,98720.47
2022-12-23T07:12:11.675Z,98722.03
2022-12-23T07:14:57.868Z,98723.84
2022-12-23T07:17:44.506Z,98724.16
2022-12-23T07:20:33.175Z,98723.25
2022-12-23T07:23:19.500Z,98718.28
2022-12-23T07:26:05.844Z,98714.81
2022-12-23T07:28:52.116Z,98719.03
2022-12-23T07:31:41.130Z,98717.50
2022-12-23T07:34:28.103Z,98712.72
2022-12-23T07:37:15.725Z,98715.59
2022-12-23T07:40:08.007Z,98708.22
2022-12-23T07:42:55.143Z,98701.28
2022-12-23T07:45:41.289Z,98700.66
2022-12-23T07:48:28.119Z,98706.44
2022-12-23T07:51:18.919Z,98699.66
2022-12-23T07:54:09.087Z,98691.19
2022-12-23T07:56:55.512Z,98695.84
2022-12-23T07:59:44.183Z,98704.94
2022-12-23T08:02:30.625Z,98700.09
2022-12-23T08:05:17.091Z,98698.56
2022-12-23T08:08:03.385Z,98699.97
2022-12-23T08:10:50.932Z,98695.56
2022-12-23T08:13:37.293Z,98685.28
2022-12-23T08:16:25.073Z,98678.34
2022-12-23T08:19:11.241Z,98674.91
2022-12-23T08:21:57.481Z,98659.81
2022-12-23T08:24:43.919Z,98662.72
2022-12-23T08:27:31.603Z,98669.66
2022-12-23T08:30:17.931Z,98666.19
2022-12-23T08:33:04.122Z,98666.94
2022-12-23T08:35:50.388Z,98675.84
2022-12-23T08:38:36.773Z,98676.75
2022-12-23T08:41:28.057Z,98667.72
2022-12-23T08:44:16.252Z,98668.47
2022-12-23T08:47:03.103Z,98670.88
2022-12-23T08:49:49.431Z,98669.06
2022-12-23T08:52:35.621Z,98665.03
2022-12-23T08:55:23.064Z,98664.44
2022-12-23T08:58:09.516Z,98656.69
2022-12-23T09:00:58.189Z,98660.59
2022-12-23T09:03:44.505Z,98654.13
2022-12-23T09:06:33.919Z,98650.66
2022-12-23T09:09:20.198Z,98662.13
2022-12-23T09:12:06.590Z,98658.03
2022-12-23T09:14:52.902Z,98647.63
2022-12-23T09:17:40.416Z,98654.56
2022-12-23T09:20:27.931Z,98659.69
2022-12-23T09:23:14.072Z,98651.53
2022-12-23T09:26:00.976Z,98649.41
2022-12-23T09:28:47.552Z,98650.50
2022-12-23T09:31:37.381Z,98644.34
2022-12-23T09:34:25.769Z,98638.31
2022-12-23T09:37:12.172Z,98638.31
2022-12-23T09:39:58.487Z,98625.28
2022-12-23T09:43:03.523Z,98625.16
2022-12-23T09:46:09.001Z,98627.56
2022-12-23T09:49:00.126Z,98627.84
2022-12-23T09:51:49.120Z,98629.53
2022-12-23T09:54:40.436Z,98622.09
2022-12-23T09:57:38.993Z,98614.69
2022-12-23T10:00:31.644Z,98606.53
2022-12-23T10:03:37.220Z,98605.00
2022-12-23T10:06:30.058Z,98602.88
2022-12-23T10:09:20.909Z,98599.56
2022-12-23T10:12:07.837Z,98605.91
2022-12-23T10:14:56.333Z,98595.63
2022-12-23T10:17:47.855Z,98595.31
2022-12-23T10:20:38.338Z,98582.94
2022-12-23T10:23:31.714Z,98591.53
2022-12-23T10:26:22.721Z,98587.75
2022-12-23T10:28:56.231Z,98578.69
2022-12-23T10:31:40.334Z,98576.56
2022-12-23T10:34:19.032Z,98565.09
2022-12-23T10:36:55.317Z,98555.13
2022-12-23T10:39:34.250Z,98553.47
2022-12-23T10:42:15.153Z,98547.56
2022-12-23T10:44:57.139Z,98539.75
2022-12-23T10:47:39.430Z,98531.59
2022-12-23T10:50:27.458Z,98522.72
2022-12-23T10:52:59.893Z,98528.44
2022-12-23T10:55:36.347Z,98523.59
2022-12-23T10:58:13.300Z,98521.19
2022-12-23T11:00:51.329Z,98513.16
2022-12-23T11:03:24.224Z,98516.81
2022-12-23T11:05:54.945Z,98513.34
2022-12-23T11:08:26.597Z,98515.72
2022-12-23T11:10:56.350Z,98514.69
2022-12-23T11:13:35.757Z,98518.03
2022-12-23T11:16:19.959Z,98518.94
2022-12-23T11:18:58.162Z,98521.63
2022-12-23T11:21:27.559Z,98523.44
2022-12-23T11:24:18.988Z,98521.03
2022-12-23T11:26:50.879Z,98518.16
2022-12-23T11:29:44.212Z,98518.31
2022-12-23T11:32:36.123Z,98521.78
2022-12-23T11:35:23.665Z,98525.28
2022-12-23T11:38:10.522Z,98523.44
2022-12-23T11:40:57.295Z,98542.78
2022-12-23T11:43:45.825Z,98536.13
2022-12-23T11:46:36.448Z,98530.41
2022-12-23T11:49:34.327Z,98531.91
2022-12-23T11:52:31.329Z,98536.72
2022-12-23T11:55:19.882Z,98542.16
2022-12-23T11:58:07.708Z,98530.22
2022-12-23T12:00:59.784Z,98528.56
2022-12-23T12:03:54.410Z,98531.72
2022-12-23T12:06:41.680Z,98524.66
2022-12-23T12:09:32.613Z,98526.31
2022-12-23T12:12:24.419Z,98525.88
2022-12-23T12:15:13.065Z,98527.53
2022-12-23T12:18:05.679Z,98527.22
2022-12-23T12:20:58.106Z,98523.13
2022-12-23T12:24:08.405Z,98520.69
2022-12-23T12:27:01.255Z,98517.09
2022-12-23T12:29:56.179Z,98513.75
2022-12-23T12:32:58.169Z,98513.31
2022-12-23T12:35:54.250Z,98509.38
2022-12-23T12:38:46.230Z,98504.53
2022-12-23T12:41:37.221Z,98506.94
2022-12-23T12:44:48.768Z,98503.47
2022-12-23T12:47:53.934Z,98504.06
2022-12-23T12:50:45.778Z,98503.94
2022-12-23T12:53:41.492Z,98501.50
2022-12-23T12:56:38.999Z,98491.09
2022-12-23T12:59:25.216Z,98490.03
2022-12-23T13:02:24.205Z,98488.34
2022-12-23T13:05:30.367Z,98493.22
2022-12-23T13:08:31.351Z,98491.53
2022-12-23T13:11:28.356Z,98487.47
2022-12-23T13:14:23.949Z,98484.16
2022-12-23T13:17:18.044Z,98476.16
2022-12-23T13:20:10.086Z,98482.00
2022-12-23T13:23:10.193Z,98483.84
2022-12-23T13:26:08.837Z,98475.25
2022-12-23T13:29:03.099Z,98480.53
2022-12-23T13:32:02.521Z,98474.50
2022-12-23T13:34:57.009Z,98471.16
2022-12-23T13:37:51.149Z,98472.06
2022-12-23T13:40:53.015Z,98473.91
2022-12-23T13:43:41.748Z,98462.13
2022-12-23T13:46:34.696Z,98464.53
2022-12-23T13:49:28.954Z,98471.47
2022-12-23T13:52:24.151Z,98469.81
2022-12-23T13:55:19.593Z,98466.34
2022-12-23T13:58:14.120Z,98476.59
2022-12-23T14:01:01.545Z,98480.06
2022-12-23T14:03:52.944Z,98469.94
2022-12-23T14:07:02.791Z,98462.69
2022-12-23T14:09:53.209Z,98466.94
2022-12-23T14:12:45.266Z,98466.34
2022-12-23T14:15:45.164Z,98465.44
2022-12-23T14:18:45.662Z,98464.53
2022-12-23T14:21:40.520Z,98460.13
2022-12-23T14:24:55.559Z,98459.41
2022-12-23T14:28:04.140Z,98460.91
2022-12-23T14:30:53.207Z,98457.28
2022-12-23T14:33:43.920Z,98446.09
2022-12-23T14:36:40.444Z,98453.78
2022-12-23T14:39:49.542Z,98456.34
2022-12-23T14:42:54.582Z,98451.22
2022-12-23T14:45:48.576Z,98443.69
2022-12-23T14:49:37.524Z,98445.50
2022-12-23T14:52:14.423Z,98453.38
2022-12-23T14:55:29.085Z,98448.25
2022-12-23T14:58:10.681Z,98439.78
2022-12-23T15:01:08.938Z,98436.16
2022-12-23T15:04:02.102Z,98435.84
2022-12-23T15:06:54.072Z,98434.66
2022-12-23T15:09:44.391Z,98434.66
2022-12-23T15:12:33.820Z,98432.09
2022-12-23T15:15:25.258Z,98437.50
2022-12-23T15:18:20.182Z,98430.69
2022-12-23T15:21:18.530Z,98429.06
2022-12-23T15:24:07.928Z,98425.56
2022-12-23T15:27:25.076Z,98419.53
2022-12-23T15:30:05.002Z,98417.88
2022-12-23T15:32:53.012Z,98412.00
2022-12-23T15:35:46.977Z,98405.22
2022-12-23T15:38:35.854Z,98402.66
2022-12-23T15:41:31.604Z,98412.59
2022-12-23T15:44:18.982Z,98413.81
2022-12-23T15:47:05.723Z,98411.13
2022-12-23T15:49:53.636Z,98415.63
2022-12-23T15:52:40.134Z,98410.19
2022-12-23T15:55:32.530Z,98415.31
2022-12-23T15:58:21.345Z,98411.13
2022-12-23T16:01:13.236Z,98410.19
2022-12-23T16:04:01.392Z,98404.16
2022-12-23T16:06:51.232Z,98399.19
2022-12-23T16:09:55.038Z,98405.03
2022-12-23T16:12:43.270Z,98412.00
2022-12-23T16:15:39.660Z,98410.19
2022-12-23T16:18:43.620Z,98408.53
2022-12-23T16:21:16.578Z,98397.53
2022-12-23T16:23:52.003Z,98404.31
2022-12-23T16:26:22.112Z,98393.88
2022-12-23T16:28:53.491Z,98388.03
2022-12-23T16:31:23.157Z,98383.16
2022-12-23T16:33:54.885Z,98369.44
2022-12-23T16:36:34.481Z,98386.94
2022-12-23T16:39:18.341Z,98392.84
2022-12-23T16:41:47.323Z,98389.38
2022-12-23T16:44:34.209Z,98391.78
2022-12-23T16:47:26.804Z,98386.03
2022-12-23T16:50:13.012Z,98385.13
2022-12-23T16:52:59.711Z,98375.78
2022-12-23T16:55:53.724Z,98365.69
2022-12-23T16:58:41.751Z,98368.53
2022-12-23T17:01:32.713Z,98377.88
2022-12-23T17:04:19.512Z,98370.94
2022-12-23T17:07:05.984Z,98371.84
2022-12-23T17:09:52.287Z,98378.06
2022-12-23T17:12:39.998Z,98375.63
2022-12-23T17:15:34.421Z,98374.72
2022-12-23T17:18:20.783Z,98373.97
2022-12-23T17:21:07.949Z,98376.41
2022-12-23T17:23:54.120Z,98370.34
2022-12-23T17:26:40.424Z,98376.69
2022-12-23T17:29:30.247Z,98380.91
2022-12-23T17:32:16.510Z,98383.63
2022-12-23T17:35:02.741Z,98384.22
2022-12-23T17:37:49.678Z,98383.94
2022-12-23T17:40:36.334Z,98389.66
2022-12-23T17:43:23.427Z,98385.41
2022-12-23T17:46:11.285Z,98392.38
2022-12-23T17:48:57.379Z,98389.97
2022-12-23T17:51:45.127Z,98390.25
2022-12-23T17:54:40.028Z,98393.88
2022-12-23T17:57:35.849Z,98390.72
2022-12-23T18:00:31.955Z,98386.66
2022-12-23T18:03:22.702Z,98395.38
2022-12-23T18:06:09.771Z,98393.13
2022-12-23T18:08:57.326Z,98385.41
2022-12-23T18:11:50.677Z,98387.84
2022-12-23T18:14:43.880Z,98390.84
2022-12-23T18:17:33.805Z,98388.59
2022-12-23T18:20:22.831Z,98395.66
2022-12-23T18:23:14.091Z,98395.66
2022-12-23T18:26:00.825Z,98398.53
2022-12-23T18:28:47.221Z,98388.88
2022-12-23T18:31:35.675Z,98395.06
2022-12-23T18:34:22.027Z,98389.94
2022-12-23T18:37:09.903Z,98398.88
2022-12-23T18:39:56.362Z,98387.53
2022-12-23T18:42:43.101Z,98393.56
2022-12-23T18:45:42.489Z,98402.16
2022-12-23T18:48:28.786Z,98400.81
2022-12-23T18:51:15.082Z,98390.56
2022-12-23T18:54:03.958Z,98392.66
2022-12-23T18:56:50.273Z,98385.72
2022-12-23T18:59:39.258Z,98375.16
2022-12-23T19:02:25.896Z,98382.84
2022-12-23T19:05:12.189Z,98396.00
2022-12-23T19:07:58.630Z,98390.09
2022-12-23T19:10:49.408Z,98383.16
2022-12-23T19:13:36.088Z,98389.03
2022-12-23T19:16:23.225Z,98386.63
2022-12-23T19:19:10.089Z,98392.66
2022-12-23T19:21:56.385Z,98392.66
2022-12-23T19:25:03.775Z,98398.22
2022-12-23T19:27:51.618Z,98399.75
2022-12-23T19:30:38.561Z,98402.59
2022-12-23T19:33:24.961Z,98404.28
2022-12-23T19:36:11.563Z,98401.69
2022-12-23T19:38:58.803Z,98411.06
2022-12-23T19:41:45.986Z,98403.53
2022-12-23T19:44:34.103Z,98401.09
2022-12-23T19:47:23.624Z,98409.72
2022-12-23T19:50:12.844Z,98417.41
2022-12-23T19:52:59.361Z,98412.88
2022-12-23T19:55:45.709Z,98427.56
2022-12-23T19:58:32.154Z,98430.84
2022-12-23T20:01:27.950Z,98425.56
2022-12-23T20:04:15.513Z,98428.91
2022-12-23T20:07:03.486Z,98435.25
2022-12-23T20:09:49.946Z,98436.75
2022-12-23T20:12:36.476Z,98436.91
2022-12-23T20:15:23.444Z,98434.34
2022-12-23T20:18:11.176Z,98444.00
2022-12-23T20:20:57.542Z,98441.88
2022-12-23T20:23:43.876Z,98443.84
2022-12-23T20:26:31.312Z,98440.53
2022-12-23T20:29:17.628Z,98455.34
2022-12-23T20:32:03.989Z,98453.66
2022-12-23T20:34:51.643Z,98461.84
2022-12-23T20:37:38.349Z,98461.06
2022-12-23T20:40:26.588Z,98456.69
2022-12-23T20:43:15.355Z,98450.34
2022-12-23T20:46:01.999Z,98459.09
2022-12-23T20:48:49.947Z,98461.97
2022-12-23T20:51:39.966Z,98459.09
2022-12-23T20:54:32.052Z,98461.53
2022-12-23T20:57:19.595Z,98468.63
2022-12-23T21:00:06.064Z,98471.22
2022-12-23T21:03:11.563Z,98474.50
2022-12-23T21:05:58.035Z,98475.13
2022-12-23T21:08:45.796Z,98472.09
2022-12-23T21:11:31.969Z,98477.25
2022-12-23T21:14:18.381Z,98471.66
2022-12-23T21:17:04.679Z,98482.22
2022-12-23T21:19:51.557Z,98481.03
2022-12-23T21:22:38.319Z,98481.31
2022-12-23T21:25:26.698Z,98489.00
2022-12-23T21:28:12.937Z,98495.97
2022-12-23T21:30:59.213Z,98499.59
2022-12-23T21:33:45.552Z,98499.91
2022-12-23T21:36:33.993Z,98498.38
2022-12-23T21:39:21.476Z,98506.25
2022-12-23T21:42:09.264Z,98503.50
2022-12-23T21:44:58.610Z,98506.06
2022-12-23T21:47:44.854Z,98505.63
2022-12-23T21:50:31.067Z,98507.28
2022-12-23T21:53:17.282Z,98515.00
2022-12-23T21:56:03.494Z,98508.06
2022-12-23T21:58:52.086Z,98509.09
2022-12-23T22:01:39.540Z,98510.03
2022-12-23T22:04:26.130Z,98508.19
2022-12-23T22:07:12.394Z,98515.31
2022-12-23T22:09:58.904Z,98514.72
2022-12-23T22:12:45.167Z,98518.50
2022-12-23T22:15:32.962Z,98523.47
2022-12-23T22:18:19.242Z,98518.91
2022-12-23T22:21:05.281Z,98525.00
2022-12-23T22:23:52.053Z,98529.50
2022-12-23T22:26:39.617Z,98531.00
2022-12-23T22:29:26.003Z,98535.25
2022-12-23T22:32:13.636Z,98536.28
2022-12-23T22:34:59.764Z,98522.84
2022-12-23T22:37:46.240Z,98540.69
2022-12-23T22:40:32.446Z,98555.19
2022-12-23T22:43:18.706Z,98552.63
2022-12-23T22:46:05.655Z,98547.66
2022-12-23T22:48:53.840Z,98550.63
2022-12-23T22:51:42.071Z,98547.78
2022-12-23T22:54:28.823Z,98552.03
2022-12-23T22:57:15.461Z,98559.88
2022-12-23T23:00:07.832Z,98569.38
2022-12-23T23:02:58.363Z,98563.78
2022-12-23T23:05:46.348Z,98567.75
2022-12-23T23:08:32.644Z,98582.41
2022-12-23T23:11:21.352Z,98578.63
2022-12-23T23:14:07.607Z,98579.22
2022-12-23T23:16:53.980Z,98585.13
2022-12-23T23:19:40.168Z,98587.56
2022-12-23T23:22:28.010Z,98588.28
2022-12-23T23:25:14.275Z,98587.69
2022-12-23T23:28:00.442Z,98591.75
2022-12-23T23:30:46.777Z,98588.91
2022-12-23T23:33:33.406Z,98592.06
2022-12-23T23:36:19.898Z,98596.59
2022-12-23T23:39:07.832Z,98596.00
2022-12-23T23:41:54.515Z,98598.72
2022-12-23T23:44:40.731Z,98597.50
2022-12-23T23:47:27.301Z,98595.09
2022-12-23T23:50:13.659Z,98603.25
2022-12-23T23:52:59.979Z,98597.78
2022-12-23T23:55:47.932Z,98602.66
2022-12-23T23:58:34.588Z,98609.28
